Time;durP1;ratioP1;P1;durP2;ratioP2;P2;SDS_P1;SDS_P2;PMS_P1;PMS_P2;Temp;Humidity;BMP_temperature;BMP_pressure;BME280_temperature;BME280_humidity;BME280_pressure;Samples;Min_cycle;Max_cycle;Signal;HPM_P1;HPM_P2
2022/03/31 00:00:52;;;;;;;18.33;8.97;;;;;;;;;;5099856;28;20089;-71
2022/03/31 00:03:19;;;;;;;18.57;9.30;;;;;;;;;;5100345;28;20035;-71
2022/03/31 00:05:45;;;;;;;26.57;10.73;;;;;;;;;;5100090;28;20461;-71
2022/03/31 00:08:13;;;;;;;17.63;8.87;;;;;;;;;;5099962;28;20031;-71
2022/03/31 00:10:44;;;;;;;22.10;9.87;;;;;;;;;;5099930;28;20027;-69
2022/03/31 00:13:12;;;;;;;21.63;10.00;;;;;;;;;;5099756;28;20080;-69
2022/03/31 00:15:38;;;;;;;18.97;10.17;;;;;;;;;;5100147;28;20027;-72
2022/03/31 00:18:04;;;;;;;19.67;10.33;;;;;;;;;;5099730;28;20020;-72
2022/03/31 00:20:30;;;;;;;20.73;10.17;;;;;;;;;;5101615;27;20062;-72
2022/03/31 00:22:55;;;;;;;25.80;11.20;;;;;;;;;;5097574;28;20538;-72
2022/03/31 00:25:21;;;;;;;27.53;11.10;;;;;;;;;;5097004;28;20023;-72
2022/03/31 00:27:47;;;;;;;24.43;10.93;;;;;;;;;;5096368;28;20027;-72
2022/03/31 00:30:13;;;;;;;27.33;11.53;;;;;;;;;;5095819;28;20122;-72
2022/03/31 00:32:38;;;;;;;25.53;12.30;;;;;;;;;;5094636;28;20023;-72
2022/03/31 00:35:05;;;;;;;27.50;12.33;;;;;;;;;;5094327;28;20088;-72
2022/03/31 00:37:30;;;;;;;23.67;11.97;;;;;;;;;;5094602;28;20101;-71
2022/03/31 00:39:55;;;;;;;31.37;11.93;;;;;;;;;;5094199;28;20025;-72
2022/03/31 00:42:21;;;;;;;28.77;12.43;;;;;;;;;;5094208;28;20027;-72
2022/03/31 00:44:47;;;;;;;33.07;13.27;;;;;;;;;;5097042;28;20330;-71
2022/03/31 00:47:12;;;;;;;27.33;12.97;;;;;;;;;;5097347;28;20020;-72
2022/03/31 00:49:37;;;;;;;30.57;13.00;;;;;;;;;;5099131;28;20023;-71
2022/03/31 00:52:03;;;;;;;28.97;13.67;;;;;;;;;;5099239;28;20023;-69
2022/03/31 00:54:28;;;;;;;25.23;13.40;;;;;;;;;;5098635;28;20011;-69
2022/03/31 00:56:55;;;;;;;29.77;13.50;;;;;;;;;;5106917;27;20035;-69
2022/03/31 00:59:21;;;;;;;27.37;14.33;;;;;;;;;;5099189;28;20023;-69
2022/03/31 01:01:47;;;;;;;27.23;13.13;;;;;;;;;;5099418;28;20116;-67
2022/03/31 01:04:13;;;;;;;29.23;14.03;;;;;;;;;;5089669;22;20076;-68
2022/03/31 01:06:39;;;;;;;35.07;15.33;;;;;;;;;;5063356;28;20033;-68
2022/03/31 01:09:04;;;;;;;34.87;15.23;;;;;;;;;;5064775;28;20081;-68
2022/03/31 01:11:30;;;;;;;33.07;15.30;;;;;;;;;;5058514;28;20032;-68
2022/03/31 01:13:55;;;;;;;33.60;15.77;;;;;;;;;;5064878;28;20464;-70
2022/03/31 01:16:21;;;;;;;35.43;16.33;;;;;;;;;;5063706;28;20062;-70
2022/03/31 01:18:47;;;;;;;39.60;16.93;;;;;;;;;;5064371;28;20048;-70
2022/03/31 01:21:12;;;;;;;37.17;16.57;;;;;;;;;;5052275;28;20106;-70
2022/03/31 01:23:37;;;;;;;36.53;16.73;;;;;;;;;;5063228;28;20600;-70
2022/03/31 01:26:06;;;;;;;36.50;16.40;;;;;;;;;;5051689;28;20044;-70
2022/03/31 01:28:32;;;;;;;39.87;17.63;;;;;;;;;;5062773;28;20038;-70
2022/03/31 01:30:57;;;;;;;37.63;16.90;;;;;;;;;;5058528;28;20039;-70
2022/03/31 01:33:22;;;;;;;38.63;17.20;;;;;;;;;;5065955;28;20399;-70
2022/03/31 01:35:48;;;;;;;39.77;17.70;;;;;;;;;;5053935;28;20035;-70
2022/03/31 01:38:13;;;;;;;48.53;18.27;;;;;;;;;;5045805;28;20025;-70
2022/03/31 01:40:38;;;;;;;39.00;17.30;;;;;;;;;;5050111;28;20020;-71
2022/03/31 01:43:04;;;;;;;38.23;18.33;;;;;;;;;;5065523;28;20052;-70
2022/03/31 01:45:29;;;;;;;39.77;17.47;;;;;;;;;;5064549;28;20024;-70
2022/03/31 01:47:55;;;;;;;39.87;18.60;;;;;;;;;;5063921;28;20078;-70
2022/03/31 01:50:20;;;;;;;33.63;16.80;;;;;;;;;;5063303;28;20029;-68
2022/03/31 01:52:45;;;;;;;37.73;16.40;;;;;;;;;;5065607;28;20531;-68
2022/03/31 01:55:11;;;;;;;45.27;18.47;;;;;;;;;;5058397;28;20028;-68
2022/03/31 01:57:36;;;;;;;42.20;18.37;;;;;;;;;;5060611;28;20789;-68
2022/03/31 02:00:03;;;;;;;31.80;14.20;;;;;;;;;;5068239;28;20099;-68
2022/03/31 02:02:30;;;;;;;35.43;14.80;;;;;;;;;;5059018;28;20031;-68
2022/03/31 02:04:55;;;;;;;39.83;17.13;;;;;;;;;;5068322;28;20041;-68
2022/03/31 02:07:20;;;;;;;39.27;17.87;;;;;;;;;;5066540;28;20028;-68
2022/03/31 02:09:45;;;;;;;39.97;17.17;;;;;;;;;;5064081;28;20107;-68
2022/03/31 02:12:11;;;;;;;47.67;17.93;;;;;;;;;;5068070;28;20032;-68
2022/03/31 02:14:37;;;;;;;39.77;17.73;;;;;;;;;;5066141;28;20029;-68
2022/03/31 02:17:06;;;;;;;34.73;16.60;;;;;;;;;;5063529;28;20420;-68
2022/03/31 02:19:31;;;;;;;38.17;16.33;;;;;;;;;;5066805;28;20024;-68
2022/03/31 02:21:56;;;;;;;35.43;16.33;;;;;;;;;;5065386;28;20508;-68
2022/03/31 02:24:22;;;;;;;36.90;16.73;;;;;;;;;;5064673;28;20068;-68
2022/03/31 02:26:48;;;;;;;32.47;16.17;;;;;;;;;;5067872;28;20111;-68
2022/03/31 02:29:13;;;;;;;34.70;16.70;;;;;;;;;;5064717;28;20028;-68
2022/03/31 02:31:38;;;;;;;29.07;13.00;;;;;;;;;;5064962;28;20032;-70
2022/03/31 02:34:04;;;;;;;37.73;16.60;;;;;;;;;;5067843;28;20043;-68
2022/03/31 02:36:30;;;;;;;33.67;15.50;;;;;;;;;;5051836;28;20017;-68
2022/03/31 02:38:56;;;;;;;33.10;14.40;;;;;;;;;;5064006;28;20411;-68
2022/03/31 02:41:21;;;;;;;31.47;13.93;;;;;;;;;;5063674;28;20033;-68
2022/03/31 02:43:46;;;;;;;31.43;14.23;;;;;;;;;;5064593;28;20021;-68
2022/03/31 02:46:12;;;;;;;26.73;12.07;;;;;;;;;;5063884;28;20033;-68
2022/03/31 02:48:37;;;;;;;29.23;13.00;;;;;;;;;;5052637;28;20440;-68
2022/03/31 02:51:02;;;;;;;28.73;13.53;;;;;;;;;;5061200;28;20662;-68
2022/03/31 02:56:11;;;;;;;25.73;13.57;;;;;;;;;;5050752;28;20067;-68
2022/03/31 02:58:36;;;;;;;31.77;13.13;;;;;;;;;;5055871;28;20051;-68
2022/03/31 03:01:02;;;;;;;23.90;12.10;;;;;;;;;;5059181;28;20028;-68
2022/03/31 03:03:28;;;;;;;26.60;11.47;;;;;;;;;;5057339;28;20026;-68
2022/03/31 03:05:54;;;;;;;21.70;10.43;;;;;;;;;;5043366;28;20040;-68
2022/03/31 03:08:19;;;;;;;26.37;11.47;;;;;;;;;;5038019;28;20043;-67
2022/03/31 03:10:45;;;;;;;23.83;10.63;;;;;;;;;;5043125;28;20044;-68
2022/03/31 03:13:10;;;;;;;25.37;10.30;;;;;;;;;;5043153;28;20037;-67
2022/03/31 03:15:36;;;;;;;19.53;10.23;;;;;;;;;;5042673;28;20707;-68
2022/03/31 03:18:02;;;;;;;17.87;7.50;;;;;;;;;;5038371;28;20080;-67
2022/03/31 03:20:27;;;;;;;24.00;9.27;;;;;;;;;;5043002;28;20021;-68
2022/03/31 03:22:53;;;;;;;19.73;9.20;;;;;;;;;;5030834;28;20614;-68
2022/03/31 03:25:19;;;;;;;15.03;8.60;;;;;;;;;;5042501;28;20079;-68
2022/03/31 03:27:45;;;;;;;19.63;8.57;;;;;;;;;;5042327;28;20044;-68
2022/03/31 03:30:10;;;;;;;17.17;8.53;;;;;;;;;;5041892;28;20640;-68
2022/03/31 03:32:36;;;;;;;17.73;7.67;;;;;;;;;;5042389;28;20688;-68
2022/03/31 03:35:06;;;;;;;20.30;8.57;;;;;;;;;;5042591;28;20021;-68
2022/03/31 03:37:31;;;;;;;13.20;6.83;;;;;;;;;;5042624;28;20036;-67
2022/03/31 03:39:56;;;;;;;16.83;7.30;;;;;;;;;;5040331;28;20021;-68
2022/03/31 03:42:22;;;;;;;16.37;8.37;;;;;;;;;;5042918;28;20077;-68
2022/03/31 03:44:47;;;;;;;17.80;7.43;;;;;;;;;;5042378;28;20025;-67
2022/03/31 03:47:12;;;;;;;16.10;7.90;;;;;;;;;;5042999;28;20020;-68
2022/03/31 03:49:37;;;;;;;15.30;7.60;;;;;;;;;;5031078;28;20109;-67
2022/03/31 03:52:03;;;;;;;15.37;7.53;;;;;;;;;;5042897;28;20037;-68
2022/03/31 03:54:28;;;;;;;12.00;6.23;;;;;;;;;;5042000;28;20056;-67
2022/03/31 03:56:53;;;;;;;16.00;7.03;;;;;;;;;;5042875;28;20037;-68
2022/03/31 03:59:19;;;;;;;14.43;6.60;;;;;;;;;;5034433;28;20082;-67
2022/03/31 04:01:44;;;;;;;15.77;6.77;;;;;;;;;;5033933;28;20109;-68
2022/03/31 04:04:10;;;;;;;16.27;8.83;;;;;;;;;;5047236;28;20087;-68
2022/03/31 04:06:35;;;;;;;18.97;8.10;;;;;;;;;;5062081;28;20557;-67
2022/03/31 04:09:01;;;;;;;18.93;7.70;;;;;;;;;;5053003;28;20032;-67
2022/03/31 04:11:26;;;;;;;14.33;7.10;;;;;;;;;;5061992;28;20610;-68
2022/03/31 04:13:51;;;;;;;16.83;8.60;;;;;;;;;;5061954;28;20035;-68
2022/03/31 04:16:16;;;;;;;19.13;9.47;;;;;;;;;;5059974;28;20032;-68
2022/03/31 04:18:42;;;;;;;21.67;10.53;;;;;;;;;;5060004;28;20040;-68
2022/03/31 04:21:07;;;;;;;19.53;10.60;;;;;;;;;;5047854;28;20520;-68
2022/03/31 04:23:32;;;;;;;23.17;9.87;;;;;;;;;;5048540;28;20023;-68
2022/03/31 04:25:57;;;;;;;19.27;9.23;;;;;;;;;;5049414;28;20064;-68
2022/03/31 04:28:23;;;;;;;15.57;7.60;;;;;;;;;;5060245;28;20036;-67
2022/03/31 04:30:48;;;;;;;20.63;10.13;;;;;;;;;;5057536;28;20021;-68
2022/03/31 04:33:13;;;;;;;19.47;9.00;;;;;;;;;;5059806;28;20082;-68
2022/03/31 04:35:38;;;;;;;17.10;7.27;;;;;;;;;;5053331;28;20411;-67
2022/03/31 04:38:04;;;;;;;22.13;10.30;;;;;;;;;;5061199;28;20397;-68
2022/03/31 04:40:29;;;;;;;21.03;9.83;;;;;;;;;;5061709;28;20033;-68
2022/03/31 04:42:55;;;;;;;19.87;9.73;;;;;;;;;;5061103;28;20094;-68
2022/03/31 04:45:20;;;;;;;23.93;11.80;;;;;;;;;;5057267;28;20025;-68
2022/03/31 04:47:46;;;;;;;22.83;10.33;;;;;;;;;;5060900;28;20059;-68
2022/03/31 04:50:12;;;;;;;24.17;12.00;;;;;;;;;;5054856;28;20055;-68
2022/03/31 04:52:38;;;;;;;18.50;9.77;;;;;;;;;;5056055;28;20060;-68
2022/03/31 04:55:03;;;;;;;24.20;10.50;;;;;;;;;;5057668;28;20147;-68
2022/03/31 04:57:28;;;;;;;23.33;12.17;;;;;;;;;;5060716;28;20423;-68
2022/03/31 04:59:53;;;;;;;19.63;11.37;;;;;;;;;;5056705;28;20091;-68
2022/03/31 05:02:19;;;;;;;19.80;10.93;;;;;;;;;;5051017;28;20133;-67
2022/03/31 05:04:44;;;;;;;23.23;9.80;;;;;;;;;;5046334;28;20072;-68
2022/03/31 05:07:09;;;;;;;20.60;10.60;;;;;;;;;;5034967;28;20026;-68
2022/03/31 05:09:35;;;;;;;19.60;9.77;;;;;;;;;;5034576;28;20032;-68
2022/03/31 05:12:00;;;;;;;24.23;10.87;;;;;;;;;;5031024;28;20032;-68
2022/03/31 05:14:25;;;;;;;17.73;10.63;;;;;;;;;;5040798;28;20950;-68
2022/03/31 05:16:51;;;;;;;21.17;10.47;;;;;;;;;;5040966;28;20029;-68
2022/03/31 05:19:17;;;;;;;19.83;9.97;;;;;;;;;;5037996;28;20618;-68
2022/03/31 05:21:43;;;;;;;23.87;12.03;;;;;;;;;;5040369;28;20489;-68
2022/03/31 05:24:08;;;;;;;24.53;11.73;;;;;;;;;;5041459;28;20068;-68
2022/03/31 05:26:33;;;;;;;20.80;10.83;;;;;;;;;;5040674;28;20037;-68
2022/03/31 05:28:58;;;;;;;19.30;10.50;;;;;;;;;;5041394;28;20037;-68
2022/03/31 05:31:23;;;;;;;22.10;11.80;;;;;;;;;;5038647;28;20035;-68
2022/03/31 05:33:49;;;;;;;22.60;11.50;;;;;;;;;;5034285;28;20119;-68
2022/03/31 05:36:14;;;;;;;20.90;11.00;;;;;;;;;;5036478;28;20021;-68
2022/03/31 05:38:39;;;;;;;24.70;12.20;;;;;;;;;;5021428;28;20021;-68
2022/03/31 05:41:04;;;;;;;21.43;10.97;;;;;;;;;;5034547;28;20024;-68
2022/03/31 05:43:30;;;;;;;25.13;12.50;;;;;;;;;;5041245;28;20025;-68
2022/03/31 05:45:55;;;;;;;33.03;12.13;;;;;;;;;;5028465;28;20040;-68
2022/03/31 05:48:20;;;;;;;28.57;13.43;;;;;;;;;;5040280;28;20052;-68
2022/03/31 05:50:45;;;;;;;25.90;12.50;;;;;;;;;;5040367;28;20040;-68
2022/03/31 05:53:11;;;;;;;29.83;13.13;;;;;;;;;;5030849;28;20049;-68
2022/03/31 05:55:36;;;;;;;29.27;14.00;;;;;;;;;;5035697;28;20029;-68
2022/03/31 05:58:02;;;;;;;24.93;11.50;;;;;;;;;;5040079;28;20105;-68
2022/03/31 06:00:28;;;;;;;24.77;12.00;;;;;;;;;;5032344;28;20072;-68
2022/03/31 06:02:55;;;;;;;27.63;12.47;;;;;;;;;;5038844;28;20389;-68
2022/03/31 06:05:23;;;;;;;24.50;10.77;;;;;;;;;;5057264;28;20105;-68
2022/03/31 06:07:51;;;;;;;27.37;11.43;;;;;;;;;;5047356;28;20032;-68
2022/03/31 06:10:16;;;;;;;26.23;11.37;;;;;;;;;;5051395;28;20694;-68
2022/03/31 06:12:41;;;;;;;24.60;11.73;;;;;;;;;;5058389;28;20140;-68
2022/03/31 06:15:07;;;;;;;23.70;11.43;;;;;;;;;;5037809;28;20021;-68
2022/03/31 06:17:35;;;;;;;22.53;10.03;;;;;;;;;;5041453;28;20025;-68
2022/03/31 06:20:01;;;;;;;24.60;10.80;;;;;;;;;;5055391;28;20532;-68
2022/03/31 06:22:26;;;;;;;22.43;9.80;;;;;;;;;;5061089;28;20031;-68
2022/03/31 06:24:51;;;;;;;22.17;9.70;;;;;;;;;;5057613;28;20036;-68
2022/03/31 06:27:16;;;;;;;25.60;11.73;;;;;;;;;;5060856;28;20365;-68
2022/03/31 06:29:45;;;;;;;24.73;11.53;;;;;;;;;;5059837;28;20040;-68
2022/03/31 06:32:10;;;;;;;21.67;10.63;;;;;;;;;;5055368;28;20037;-68
2022/03/31 06:34:36;;;;;;;23.10;10.90;;;;;;;;;;5052605;28;20029;-68
2022/03/31 06:37:01;;;;;;;25.33;12.07;;;;;;;;;;5060504;28;20087;-68
2022/03/31 06:39:26;;;;;;;19.60;9.43;;;;;;;;;;5060398;28;20661;-68
2022/03/31 06:41:52;;;;;;;23.63;11.33;;;;;;;;;;5059890;28;20052;-68
2022/03/31 06:44:19;;;;;;;25.20;10.80;;;;;;;;;;5064317;28;20104;-68
2022/03/31 06:46:45;;;;;;;20.10;10.47;;;;;;;;;;5063125;28;20141;-68
2022/03/31 06:49:11;;;;;;;18.47;9.87;;;;;;;;;;5063459;28;20108;-68
2022/03/31 06:51:36;;;;;;;28.53;13.03;;;;;;;;;;5055956;28;20108;-68
2022/03/31 06:54:03;;;;;;;28.13;13.70;;;;;;;;;;5052150;28;20484;-68
2022/03/31 06:56:28;;;;;;;23.67;11.63;;;;;;;;;;5063588;28;20020;-68
2022/03/31 06:58:54;;;;;;;27.80;12.47;;;;;;;;;;5063546;28;20032;-68
2022/03/31 07:01:19;;;;;;;25.20;12.77;;;;;;;;;;5053245;28;20166;-68
2022/03/31 07:03:44;;;;;;;28.57;13.73;;;;;;;;;;5059419;28;20131;-68
2022/03/31 07:06:10;;;;;;;27.97;13.73;;;;;;;;;;5043509;28;20021;-69
2022/03/31 07:08:35;;;;;;;22.67;12.13;;;;;;;;;;5043674;28;20048;-68
2022/03/31 07:11:01;;;;;;;26.20;12.37;;;;;;;;;;5043184;28;20029;-68
2022/03/31 07:13:26;;;;;;;23.17;10.67;;;;;;;;;;5043033;28;20040;-68
2022/03/31 07:15:51;;;;;;;24.93;12.87;;;;;;;;;;5043027;28;20025;-68
2022/03/31 07:18:17;;;;;;;21.70;10.70;;;;;;;;;;5042881;28;20516;-68
2022/03/31 07:20:42;;;;;;;25.77;11.40;;;;;;;;;;5043403;28;20068;-68
2022/03/31 07:23:08;;;;;;;24.00;12.30;;;;;;;;;;5032742;28;20036;-68
2022/03/31 07:25:34;;;;;;;27.10;13.60;;;;;;;;;;5037364;28;20032;-69
2022/03/31 07:27:59;;;;;;;21.40;10.43;;;;;;;;;;5043057;28;20060;-68
2022/03/31 07:30:24;;;;;;;18.13;9.53;;;;;;;;;;5041578;28;20037;-68
2022/03/31 07:32:51;;;;;;;21.37;11.50;;;;;;;;;;5041337;28;20043;-68
2022/03/31 07:35:17;;;;;;;26.13;10.90;;;;;;;;;;5041130;28;20444;-69
2022/03/31 07:37:42;;;;;;;23.43;10.37;;;;;;;;;;5043116;28;20079;-69
2022/03/31 07:40:07;;;;;;;27.03;12.13;;;;;;;;;;5041923;28;20751;-69
2022/03/31 07:42:33;;;;;;;20.10;10.00;;;;;;;;;;5041784;28;20610;-68
2022/03/31 07:44:58;;;;;;;22.83;11.33;;;;;;;;;;5042002;28;20036;-69
2022/03/31 07:47:23;;;;;;;23.80;11.30;;;;;;;;;;5042526;28;20037;-69
2022/03/31 07:49:49;;;;;;;24.13;12.20;;;;;;;;;;5042251;28;20025;-69
2022/03/31 07:52:18;;;;;;;26.20;12.50;;;;;;;;;;5041976;28;20032;-68
2022/03/31 07:54:44;;;;;;;23.23;11.07;;;;;;;;;;5039026;28;20074;-68
2022/03/31 07:57:09;;;;;;;24.27;12.07;;;;;;;;;;5023510;28;20324;-68
2022/03/31 07:59:34;;;;;;;23.87;10.03;;;;;;;;;;5036022;28;20036;-68
2022/03/31 08:02:00;;;;;;;22.57;11.27;;;;;;;;;;5043336;28;20040;-68
2022/03/31 08:04:27;;;;;;;25.30;13.17;;;;;;;;;;5041617;28;20091;-68
2022/03/31 08:06:52;;;;;;;24.47;12.17;;;;;;;;;;5030479;28;20037;-68
2022/03/31 08:09:20;;;;;;;24.23;10.67;;;;;;;;;;5041271;28;20631;-68
2022/03/31 08:11:46;;;;;;;28.70;14.77;;;;;;;;;;5041805;28;20545;-68
2022/03/31 08:14:11;;;;;;;20.53;9.33;;;;;;;;;;5038744;28;20101;-68
2022/03/31 08:16:36;;;;;;;23.87;10.87;;;;;;;;;;5035935;28;20032;-68
2022/03/31 08:19:02;;;;;;;24.67;9.57;;;;;;;;;;5042851;28;20033;-68
2022/03/31 08:21:27;;;;;;;28.93;15.07;;;;;;;;;;5041834;28;20025;-68
2022/03/31 08:23:53;;;;;;;26.83;13.67;;;;;;;;;;5028989;28;20033;-68
2022/03/31 08:26:18;;;;;;;29.07;14.30;;;;;;;;;;5038574;28;20053;-68
2022/03/31 08:28:44;;;;;;;27.23;15.07;;;;;;;;;;5042514;28;20461;-68
2022/03/31 08:31:09;;;;;;;26.67;13.57;;;;;;;;;;5024151;28;20748;-67
2022/03/31 08:33:34;;;;;;;25.63;13.53;;;;;;;;;;5037639;28;20028;-67
2022/03/31 08:36:00;;;;;;;23.87;11.23;;;;;;;;;;5030878;28;20052;-67
2022/03/31 08:38:25;;;;;;;26.73;12.40;;;;;;;;;;5041665;28;20036;-67
2022/03/31 08:40:50;;;;;;;27.93;15.60;;;;;;;;;;5041361;28;20021;-68
2022/03/31 08:43:16;;;;;;;34.47;17.60;;;;;;;;;;5042226;28;20135;-68
2022/03/31 08:45:41;;;;;;;30.33;16.43;;;;;;;;;;5034802;28;20032;-68
2022/03/31 08:48:07;;;;;;;21.77;10.80;;;;;;;;;;5035134;28;20663;-67
2022/03/31 08:50:33;;;;;;;29.63;15.80;;;;;;;;;;5024790;28;20029;-67
2022/03/31 08:52:58;;;;;;;26.70;13.77;;;;;;;;;;5041620;28;20086;-67
2022/03/31 08:55:24;;;;;;;25.87;12.63;;;;;;;;;;5039475;28;20028;-67
2022/03/31 08:57:50;;;;;;;27.50;14.80;;;;;;;;;;5014419;28;20413;-67
2022/03/31 09:00:16;;;;;;;32.83;16.50;;;;;;;;;;5038339;28;20769;-67
2022/03/31 09:02:57;;;;;;;30.23;15.77;;;;;;;;;;5039622;28;20052;-67
2022/03/31 09:05:22;;;;;;;31.10;15.67;;;;;;;;;;5040013;28;20124;-67
2022/03/31 09:07:51;;;;;;;30.87;13.40;;;;;;;;;;5040493;28;20120;-67
2022/03/31 09:10:24;;;;;;;25.30;12.37;;;;;;;;;;5033174;28;20036;-67
2022/03/31 09:12:49;;;;;;;26.43;13.83;;;;;;;;;;5038169;28;20078;-67
2022/03/31 09:15:15;;;;;;;31.03;14.67;;;;;;;;;;5041169;28;20026;-67
2022/03/31 09:17:40;;;;;;;33.33;17.27;;;;;;;;;;5037120;28;20076;-68
2022/03/31 09:20:06;;;;;;;22.57;11.83;;;;;;;;;;5032771;28;20021;-67
2022/03/31 09:22:43;;;;;;;29.13;15.30;;;;;;;;;;5041076;28;20040;-68
2022/03/31 09:25:09;;;;;;;28.37;13.57;;;;;;;;;;5039017;28;20107;-68
2022/03/31 09:27:34;;;;;;;31.47;16.13;;;;;;;;;;5041454;28;20155;-67
2022/03/31 09:30:04;;;;;;;28.87;13.93;;;;;;;;;;5041071;28;20031;-68
2022/03/31 09:32:29;;;;;;;34.07;15.47;;;;;;;;;;5039626;28;20032;-68
2022/03/31 09:34:55;;;;;;;26.93;13.63;;;;;;;;;;5037052;28;20099;-67
2022/03/31 09:37:29;;;;;;;29.50;16.03;;;;;;;;;;5041641;28;20036;-68
2022/03/31 09:39:55;;;;;;;29.30;14.70;;;;;;;;;;5040697;28;20515;-67
2022/03/31 09:42:20;;;;;;;25.33;12.97;;;;;;;;;;5041641;28;20025;-68
2022/03/31 09:44:55;;;;;;;28.40;14.47;;;;;;;;;;5022509;28;20034;-67
2022/03/31 09:47:20;;;;;;;31.80;15.80;;;;;;;;;;5022231;28;20075;-68
2022/03/31 09:49:51;;;;;;;29.93;16.23;;;;;;;;;;5029247;28;20037;-68
2022/03/31 09:52:16;;;;;;;25.67;12.05;;;;;;;;;;5032326;28;20500;-68
2022/03/31 09:54:41;;;;;;;36.00;15.53;;;;;;;;;;5037038;28;20021;-68
2022/03/31 09:57:08;;;;;;;24.20;11.40;;;;;;;;;;5040611;28;20029;-68
2022/03/31 09:59:42;;;;;;;28.47;14.00;;;;;;;;;;5040615;28;20025;-69
2022/03/31 10:02:08;;;;;;;29.10;15.93;;;;;;;;;;5040543;28;20092;-69
2022/03/31 10:04:34;;;;;;;23.33;12.93;;;;;;;;;;5049214;28;20144;-69
2022/03/31 10:06:59;;;;;;;26.87;13.50;;;;;;;;;;5061444;28;20021;-69
2022/03/31 10:09:25;;;;;;;32.57;15.80;;;;;;;;;;5060512;28;20078;-69
2022/03/31 10:12:03;;;;;;;27.30;13.30;;;;;;;;;;5026642;28;20029;-69
2022/03/31 10:14:43;;;;;;;20.27;10.30;;;;;;;;;;5046187;28;20025;-68
2022/03/31 10:17:08;;;;;;;22.30;11.97;;;;;;;;;;5041421;28;20098;-68
2022/03/31 10:19:38;;;;;;;24.43;11.17;;;;;;;;;;5060116;28;20024;-68
2022/03/31 10:22:03;;;;;;;26.10;12.00;;;;;;;;;;5045374;28;20511;-68
2022/03/31 10:24:41;;;;;;;21.17;10.70;;;;;;;;;;5045651;28;20021;-68
2022/03/31 10:27:06;;;;;;;17.33;9.13;;;;;;;;;;5062393;28;20044;-68
2022/03/31 10:29:39;;;;;;;18.73;8.30;;;;;;;;;;5064927;28;20024;-68
2022/03/31 10:32:17;;;;;;;18.07;10.57;;;;;;;;;;5065027;28;20036;-68
2022/03/31 10:34:45;;;;;;;15.93;8.57;;;;;;;;;;5061137;28;20032;-68
2022/03/31 10:37:11;;;;;;;14.77;7.57;;;;;;;;;;5063893;28;20508;-68
2022/03/31 10:39:36;;;;;;;17.93;10.33;;;;;;;;;;5064487;28;20029;-68
2022/03/31 10:42:05;;;;;;;18.97;9.43;;;;;;;;;;5060547;28;20479;-68
2022/03/31 10:44:31;;;;;;;10.20;5.97;;;;;;;;;;5064314;28;20706;-68
2022/03/31 10:47:07;;;;;;;15.73;9.80;;;;;;;;;;5049781;28;20024;-68
2022/03/31 10:49:33;;;;;;;14.40;7.83;;;;;;;;;;5056158;28;20086;-68
2022/03/31 10:51:59;;;;;;;15.13;6.73;;;;;;;;;;5064193;28;20585;-68
2022/03/31 10:54:28;;;;;;;17.10;9.73;;;;;;;;;;5063596;28;20032;-68
2022/03/31 10:57:07;;;;;;;15.83;8.40;;;;;;;;;;5062531;28;20016;-68
2022/03/31 10:59:33;;;;;;;20.90;10.93;;;;;;;;;;5056473;28;20017;-68
2022/03/31 11:02:02;;;;;;;15.03;7.90;;;;;;;;;;5058145;28;20020;-68
2022/03/31 11:04:27;;;;;;;18.73;9.67;;;;;;;;;;5044749;28;20056;-68
2022/03/31 11:06:55;;;;;;;16.30;6.83;;;;;;;;;;5043905;28;20037;-67
2022/03/31 11:09:27;;;;;;;16.97;8.97;;;;;;;;;;5044443;28;20060;-67
2022/03/31 11:11:53;;;;;;;20.45;6.85;;;;;;;;;;5044308;28;20087;-67
2022/03/31 11:14:18;;;;;;;17.57;7.37;;;;;;;;;;5043368;28;20037;-67
2022/03/31 11:16:44;;;;;;;15.73;9.17;;;;;;;;;;5025150;28;20032;-67
2022/03/31 11:19:09;;;;;;;21.83;11.33;;;;;;;;;;5039990;28;20144;-67
2022/03/31 11:21:36;;;;;;;20.60;11.57;;;;;;;;;;5026044;28;20029;-67
2022/03/31 11:24:01;;;;;;;13.87;7.70;;;;;;;;;;5024090;28;20017;-67
2022/03/31 11:26:31;;;;;;;15.90;9.63;;;;;;;;;;5023972;28;20036;-67
2022/03/31 11:28:56;;;;;;;13.83;7.60;;;;;;;;;;5028567;28;20017;-67
2022/03/31 11:31:22;;;;;;;15.93;7.50;;;;;;;;;;5036501;28;20248;-67
2022/03/31 11:33:48;;;;;;;17.73;8.80;;;;;;;;;;5043110;28;20664;-67
2022/03/31 11:36:13;;;;;;;13.17;8.17;;;;;;;;;;5043345;28;20808;-67
2022/03/31 11:38:39;;;;;;;17.70;9.60;;;;;;;;;;5043223;28;20021;-67
2022/03/31 11:41:04;;;;;;;16.53;7.97;;;;;;;;;;5042428;28;20096;-67
2022/03/31 11:43:30;;;;;;;19.70;10.77;;;;;;;;;;5043088;28;20465;-67
2022/03/31 11:45:56;;;;;;;19.97;11.50;;;;;;;;;;5042586;28;20021;-67
2022/03/31 11:48:39;;;;;;;18.13;9.93;;;;;;;;;;5043345;28;20104;-67
2022/03/31 11:51:06;;;;;;;19.07;10.63;;;;;;;;;;5020484;28;20021;-67
2022/03/31 11:53:38;;;;;;;19.27;10.33;;;;;;;;;;5043022;28;20035;-67
2022/03/31 11:56:05;;;;;;;16.67;9.97;;;;;;;;;;5042401;28;20040;-67
2022/03/31 11:58:33;;;;;;;20.10;10.53;;;;;;;;;;5042828;28;20021;-67
2022/03/31 12:00:59;;;;;;;19.17;10.30;;;;;;;;;;5031174;28;20040;-67
2022/03/31 12:03:32;;;;;;;18.43;10.20;;;;;;;;;;5041840;28;20730;-67
2022/03/31 12:05:58;;;;;;;17.67;9.60;;;;;;;;;;5039078;28;20065;-67
2022/03/31 12:08:24;;;;;;;15.83;6.93;;;;;;;;;;5036968;28;20119;-67
2022/03/31 12:10:51;;;;;;;14.97;10.10;;;;;;;;;;5042217;28;20025;-67
2022/03/31 12:13:16;;;;;;;15.67;8.90;;;;;;;;;;5039893;28;20029;-67
2022/03/31 12:15:41;;;;;;;22.40;11.43;;;;;;;;;;5041737;28;20100;-67
2022/03/31 12:18:08;;;;;;;16.10;8.00;;;;;;;;;;5044771;28;20028;-67
2022/03/31 12:20:34;;;;;;;14.20;7.07;;;;;;;;;;5038046;28;20021;-67
2022/03/31 12:23:00;;;;;;;12.00;6.83;;;;;;;;;;5041119;28;20055;-67
2022/03/31 12:25:26;;;;;;;13.90;7.77;;;;;;;;;;5037162;28;20423;-67
2022/03/31 12:27:51;;;;;;;13.87;7.60;;;;;;;;;;5042568;28;20028;-67
2022/03/31 12:30:17;;;;;;;16.97;8.73;;;;;;;;;;5041449;28;20473;-67
2022/03/31 12:32:48;;;;;;;13.40;8.00;;;;;;;;;;5036492;28;20033;-68
2022/03/31 12:35:14;;;;;;;11.30;6.32;;;;;;;;;;5035653;28;20039;-67
2022/03/31 12:37:39;;;;;;;10.70;4.70;;;;;;;;;;5040459;28;20025;-67
2022/03/31 12:40:08;;;;;;;10.73;6.20;;;;;;;;;;5041246;28;20104;-67
2022/03/31 12:42:36;;;;;;;12.93;6.30;;;;;;;;;;5038722;28;20032;-67
2022/03/31 12:45:10;;;;;;;10.37;5.17;;;;;;;;;;5037268;28;20103;-67
2022/03/31 12:47:40;;;;;;;8.53;4.37;;;;;;;;;;5027325;28;20024;-68
2022/03/31 12:50:13;;;;;;;11.40;6.23;;;;;;;;;;5041717;28;20072;-67
2022/03/31 12:52:39;;;;;;;9.07;5.23;;;;;;;;;;5042000;28;20571;-67
2022/03/31 12:55:04;;;;;;;9.43;4.33;;;;;;;;;;5041494;28;20112;-68
2022/03/31 12:57:29;;;;;;;10.47;5.03;;;;;;;;;;5038243;28;20033;-67
2022/03/31 13:00:12;;;;;;;8.33;4.87;;;;;;;;;;5040619;28;20027;-67
2022/03/31 13:02:38;;;;;;;10.03;4.57;;;;;;;;;;5041041;28;20017;-67
2022/03/31 13:05:04;;;;;;;8.20;4.23;;;;;;;;;;5038787;28;20059;-67
2022/03/31 13:07:29;;;;;;;10.67;5.23;;;;;;;;;;5054368;28;20029;-67
2022/03/31 13:09:56;;;;;;;7.37;3.93;;;;;;;;;;5056942;28;20024;-66
2022/03/31 13:12:22;;;;;;;10.17;4.17;;;;;;;;;;5046525;28;20028;-66
2022/03/31 13:14:47;;;;;;;8.13;3.90;;;;;;;;;;5061151;28;20749;-67
2022/03/31 13:17:14;;;;;;;10.87;5.00;;;;;;;;;;5042977;28;20043;-67
2022/03/31 13:19:39;;;;;;;11.00;4.80;;;;;;;;;;5059915;28;20558;-67
2022/03/31 13:22:05;;;;;;;13.53;4.87;;;;;;;;;;5061698;28;20093;-67
2022/03/31 13:24:31;;;;;;;13.10;4.73;;;;;;;;;;5061057;28;20024;-67
2022/03/31 13:26:56;;;;;;;7.30;3.73;;;;;;;;;;5061685;28;20047;-67
2022/03/31 13:29:23;;;;;;;7.73;3.83;;;;;;;;;;5060458;28;20812;-67
2022/03/31 13:31:51;;;;;;;6.40;3.10;;;;;;;;;;5052310;28;20032;-67
2022/03/31 13:34:17;;;;;;;6.10;3.03;;;;;;;;;;5060185;28;20021;-67
2022/03/31 13:36:43;;;;;;;7.30;3.47;;;;;;;;;;5061042;28;20731;-67
2022/03/31 13:39:12;;;;;;;6.50;2.97;;;;;;;;;;5061170;28;20040;-67
2022/03/31 13:41:40;;;;;;;8.77;3.33;;;;;;;;;;5057242;28;20103;-67
2022/03/31 13:44:06;;;;;;;6.47;2.87;;;;;;;;;;5061226;28;20020;-67
2022/03/31 13:46:31;;;;;;;7.03;3.40;;;;;;;;;;5060942;28;20043;-67
2022/03/31 13:48:56;;;;;;;7.50;3.43;;;;;;;;;;5060144;28;20543;-67
2022/03/31 13:51:21;;;;;;;10.43;4.17;;;;;;;;;;5046401;28;20061;-67
2022/03/31 13:53:53;;;;;;;7.03;3.43;;;;;;;;;;5041517;28;20023;-66
2022/03/31 13:56:18;;;;;;;8.65;3.58;;;;;;;;;;5044159;28;20070;-66
2022/03/31 14:01:27;;;;;;;5.73;3.27;;;;;;;;;;5059657;28;20039;-66
2022/03/31 14:03:54;;;;;;;7.97;3.07;;;;;;;;;;5060717;28;20045;-66
2022/03/31 14:06:20;;;;;;;7.33;2.80;;;;;;;;;;5060300;28;20032;-67
2022/03/31 14:08:46;;;;;;;8.57;3.60;;;;;;;;;;5055185;28;20039;-66
2022/03/31 14:11:13;;;;;;;8.27;2.40;;;;;;;;;;5048958;28;20048;-67
2022/03/31 14:13:38;;;;;;;6.40;2.67;;;;;;;;;;5060520;28;20032;-67
2022/03/31 14:16:04;;;;;;;8.77;2.67;;;;;;;;;;5061015;28;20020;-67
2022/03/31 14:18:31;;;;;;;8.87;2.73;;;;;;;;;;5058133;28;20203;-67
2022/03/31 14:20:57;;;;;;;5.77;2.53;;;;;;;;;;5041242;28;20421;-66
2022/03/31 14:23:22;;;;;;;5.77;3.20;;;;;;;;;;5041356;28;20586;-67